L70 weather

Agua Dulce Airpark
Agua Dulce, California, United States

Public forecast

Using degrees Fahrenheit for public forecast. Weather courtesy of forecast.io.

METAR (pilot weather report)

Closest report is Palmdale Regional/USAF Plant 42 Airport, 13.5 nm (25.1 km) NE. Retrieved 2019/06/18 09:53 UTC (52 minutes ago):

KPMD 180953Z AUTO 20008KT 10SM CLR 20/11 A2990 RMK AO2 SLP095 T02000106

TAF (pilot weather forecast)

Closest forecast is Palmdale Regional/USAF Plant 42 Airport, 13.5 nm (25.1 km) NE. Retrieved 2019/06/18 06:36 UTC (4 hours ago):

TAF KPMD 180532Z 1806/1906 21012KT P6SM SKC FM181300 VRB03KT P6SM SKC FM181800 26006KT P6SM SKC FM182300 24015KT P6SM SKC FM190300 23012KT P6SM SKC